الصفحة الرئيسية
METAR-TAF:

METAR-TAF

مطار :

مطار مليلية

مليلية, إسبانيا

دائرة عرض: 35-17N, خط طول: 002-57W, ارتفاع: 47 متر

مراقبة الطقس الحالي

تاريخ ووقت الإصدار 39 دقيقة قبل الساعة 03:30UTC
ريح 2 عقدة من الشمال/الشمال الشرقي
درجة الحرارة 15°درجة مئوية
الرطوبة 72%
ضغط 1026 hPa
الرؤية 10 كم أو أكثر
الغيوم لا تقل 1500 م ولا وجود لمزنة ركامية السحاب الأسود

METAR: GEML 180330Z AUTO 02002KT CAVOK 15/10 Q1026

زمن: 05:09 (04:09 UTC)

توقعات

تاريخ ووقت الإصدار 2ساعات و 9 دقيقة قبل الساعة 02:00UTC
التوقعات صالحة من18 الساعة 03 UTC إلى 19 الساعة 03 UTC
ريح 7 عقدة من الغرب
الرؤية 10 كم أو أكثر
الغيوم لا تقل 1500 م ولا وجود لمزنة ركامية السحاب الأسود
أصبح
من 18 الساعة 09 UTC إلى 18 الساعة 11 UTC
ريح 10 عقدة من الشرق/الشمال الشرقي
غيوم مفككة على ارتفاع 800 قدم

TAF: GEML 180200Z 1803/1903 26007KT CAVOK TX20/1814Z TN12/1806Z BECMG 1809/1811 06010KT BKN008

أرصاد الطقس والتوقعات من أكثر من 4000 مطار (تقارير الطقس للمطار METAR والتنبؤ بالطقس بالمطارTAF).

المحطات المتاحة هي النقط الصفراء والحمراء على الخريطة.

حرك المؤشر فوق النقطة لمعرفة اسم المحطة.

ثم انقر لمعرفة أرصاد وتوقعات الطقس.

لتغيير الخارطة: اضغط على الأزرار الخضراء مع رمز الصليب الأسود للتكبير. على الزر الأخضر مع شرطة للتصغير، أو على الأسهم الخضراء للخرائط المجاورة.


METAR-TAF: